sensor_id;sensor_type;location;lat;lon;timestamp;P1;durP1;ratioP1;P2;durP2;ratioP2
12625;SDS011;6378;42.684;23.372;2023-03-01T05:29:20;10.37;;;7.03;;
12625;SDS011;6378;42.684;23.372;2023-03-01T05:31:52;8.73;;;6.00;;
12625;SDS011;6378;42.684;23.372;2023-03-01T05:34:18;9.13;;;6.30;;
12625;SDS011;6378;42.684;23.372;2023-03-01T05:36:44;9.33;;;6.20;;
12625;SDS011;6378;42.684;23.372;2023-03-01T05:39:09;8.87;;;6.53;;
12625;SDS011;6378;42.684;23.372;2023-03-01T05:41:34;10.57;;;6.73;;
12625;SDS011;6378;42.684;23.372;2023-03-01T05:44:00;8.80;;;6.73;;
12625;SDS011;6378;42.684;23.372;2023-03-01T05:46:25;8.70;;;6.13;;
12625;SDS011;6378;42.684;23.372;2023-03-01T05:48:50;6.93;;;5.73;;
12625;SDS011;6378;42.684;23.372;2023-03-01T05:51:15;11.23;;;6.17;;
12625;SDS011;6378;42.684;23.372;2023-03-01T05:53:41;6.37;;;4.53;;
12625;SDS011;6378;42.684;23.372;2023-03-01T05:56:06;7.37;;;5.40;;
12625;SDS011;6378;42.684;23.372;2023-03-01T05:58:32;8.30;;;4.93;;
12625;SDS011;6378;42.684;23.372;2023-03-01T06:00:57;5.87;;;4.00;;
12625;SDS011;6378;42.684;23.372;2023-03-01T06:03:22;5.57;;;4.60;;
12625;SDS011;6378;42.684;23.372;2023-03-01T06:05:48;7.20;;;4.87;;
12625;SDS011;6378;42.684;23.372;2023-03-01T06:08:13;5.10;;;3.93;;
12625;SDS011;6378;42.684;23.372;2023-03-01T06:10:38;5.07;;;4.40;;
12625;SDS011;6378;42.684;23.372;2023-03-01T06:13:04;5.87;;;4.27;;
12625;SDS011;6378;42.684;23.372;2023-03-01T06:15:29;5.00;;;3.83;;
12625;SDS011;6378;42.684;23.372;2023-03-01T06:17:55;4.53;;;3.67;;
12625;SDS011;6378;42.684;23.372;2023-03-01T06:20:23;4.10;;;3.70;;
12625;SDS011;6378;42.684;23.372;2023-03-01T06:22:49;4.17;;;3.30;;
12625;SDS011;6378;42.684;23.372;2023-03-01T06:25:16;6.10;;;4.87;;
12625;SDS011;6378;42.684;23.372;2023-03-01T06:27:41;13.93;;;8.90;;
12625;SDS011;6378;42.684;23.372;2023-03-01T06:30:08;8.17;;;5.20;;
12625;SDS011;6378;42.684;23.372;2023-03-01T06:32:35;6.47;;;3.97;;
12625;SDS011;6378;42.684;23.372;2023-03-01T06:35:01;6.30;;;4.70;;
12625;SDS011;6378;42.684;23.372;2023-03-01T06:37:26;6.73;;;5.23;;
12625;SDS011;6378;42.684;23.372;2023-03-01T06:39:51;5.97;;;4.80;;
12625;SDS011;6378;42.684;23.372;2023-03-01T06:42:17;6.77;;;4.77;;
12625;SDS011;6378;42.684;23.372;2023-03-01T06:44:42;6.07;;;4.27;;
12625;SDS011;6378;42.684;23.372;2023-03-01T06:47:07;7.40;;;4.50;;
12625;SDS011;6378;42.684;23.372;2023-03-01T06:49:32;8.33;;;5.33;;
12625;SDS011;6378;42.684;23.372;2023-03-01T06:51:57;5.67;;;4.47;;
12625;SDS011;6378;42.684;23.372;2023-03-01T06:54:23;7.80;;;4.97;;
12625;SDS011;6378;42.684;23.372;2023-03-01T06:56:49;11.97;;;7.70;;
12625;SDS011;6378;42.684;23.372;2023-03-01T06:59:14;8.73;;;6.20;;
12625;SDS011;6378;42.684;23.372;2023-03-01T07:01:40;9.40;;;6.77;;
12625;SDS011;6378;42.684;23.372;2023-03-01T07:04:05;8.07;;;5.83;;
12625;SDS011;6378;42.684;23.372;2023-03-01T07:06:30;5.50;;;4.87;;
12625;SDS011;6378;42.684;23.372;2023-03-01T07:08:55;7.17;;;4.80;;
12625;SDS011;6378;42.684;23.372;2023-03-01T07:11:21;5.50;;;4.20;;
12625;SDS011;6378;42.684;23.372;2023-03-01T07:13:46;6.07;;;4.57;;
12625;SDS011;6378;42.684;23.372;2023-03-01T07:16:11;7.53;;;5.17;;
12625;SDS011;6378;42.684;23.372;2023-03-01T07:18:37;5.83;;;4.70;;
12625;SDS011;6378;42.684;23.372;2023-03-01T07:21:06;7.10;;;4.40;;
12625;SDS011;6378;42.684;23.372;2023-03-01T07:23:31;5.20;;;3.87;;
12625;SDS011;6378;42.684;23.372;2023-03-01T07:25:57;5.37;;;4.33;;
12625;SDS011;6378;42.684;23.372;2023-03-01T07:28:23;10.27;;;7.30;;
12625;SDS011;6378;42.684;23.372;2023-03-01T07:30:48;8.50;;;5.83;;
12625;SDS011;6378;42.684;23.372;2023-03-01T07:33:13;8.47;;;5.97;;
12625;SDS011;6378;42.684;23.372;2023-03-01T07:35:38;9.13;;;6.27;;
12625;SDS011;6378;42.684;23.372;2023-03-01T07:38:04;8.30;;;5.00;;
12625;SDS011;6378;42.684;23.372;2023-03-01T07:40:29;4.00;;;3.60;;
12625;SDS011;6378;42.684;23.372;2023-03-01T07:42:55;6.17;;;3.70;;
12625;SDS011;6378;42.684;23.372;2023-03-01T07:45:20;5.13;;;3.43;;
12625;SDS011;6378;42.684;23.372;2023-03-01T07:47:45;5.43;;;2.83;;
12625;SDS011;6378;42.684;23.372;2023-03-01T07:50:11;6.23;;;3.07;;
12625;SDS011;6378;42.684;23.372;2023-03-01T07:52:36;3.87;;;3.10;;
12625;SDS011;6378;42.684;23.372;2023-03-01T07:55:01;3.60;;;2.90;;
12625;SDS011;6378;42.684;23.372;2023-03-01T07:57:26;5.60;;;3.50;;
12625;SDS011;6378;42.684;23.372;2023-03-01T07:59:52;6.30;;;4.63;;
12625;SDS011;6378;42.684;23.372;2023-03-01T08:02:17;2.67;;;2.30;;
12625;SDS011;6378;42.684;23.372;2023-03-01T08:04:42;15.47;;;7.20;;
12625;SDS011;6378;42.684;23.372;2023-03-01T08:07:08;8.20;;;6.33;;
12625;SDS011;6378;42.684;23.372;2023-03-01T08:09:36;3.47;;;2.70;;
12625;SDS011;6378;42.684;23.372;2023-03-01T08:12:02;3.33;;;3.03;;
12625;SDS011;6378;42.684;23.372;2023-03-01T08:14:29;3.50;;;2.77;;
12625;SDS011;6378;42.684;23.372;2023-03-01T08:16:54;4.97;;;3.60;;
12625;SDS011;6378;42.684;23.372;2023-03-01T08:19:20;2.37;;;2.17;;
12625;SDS011;6378;42.684;23.372;2023-03-01T08:21:45;4.03;;;3.50;;
12625;SDS011;6378;42.684;23.372;2023-03-01T08:24:11;4.53;;;3.43;;
12625;SDS011;6378;42.684;23.372;2023-03-01T08:26:36;7.30;;;4.23;;
12625;SDS011;6378;42.684;23.372;2023-03-01T08:29:02;5.37;;;3.63;;
12625;SDS011;6378;42.684;23.372;2023-03-01T08:31:31;5.63;;;3.13;;
12625;SDS011;6378;42.684;23.372;2023-03-01T08:33:58;3.70;;;3.03;;
12625;SDS011;6378;42.684;23.372;2023-03-01T08:36:25;4.73;;;3.87;;
12625;SDS011;6378;42.684;23.372;2023-03-01T08:38:51;7.17;;;4.40;;
12625;SDS011;6378;42.684;23.372;2023-03-01T08:41:16;5.87;;;3.70;;
12625;SDS011;6378;42.684;23.372;2023-03-01T08:43:41;3.77;;;3.00;;
12625;SDS011;6378;42.684;23.372;2023-03-01T08:46:07;3.67;;;2.90;;
12625;SDS011;6378;42.684;23.372;2023-03-01T08:48:32;3.17;;;2.83;;
12625;SDS011;6378;42.684;23.372;2023-03-01T08:51:06;6.33;;;3.73;;
12625;SDS011;6378;42.684;23.372;2023-03-01T08:53:32;4.60;;;4.00;;
12625;SDS011;6378;42.684;23.372;2023-03-01T08:55:59;5.23;;;3.50;;
12625;SDS011;6378;42.684;23.372;2023-03-01T08:58:24;4.40;;;4.00;;
12625;SDS011;6378;42.684;23.372;2023-03-01T09:00:50;4.57;;;3.03;;
12625;SDS011;6378;42.684;23.372;2023-03-01T09:03:15;3.93;;;3.00;;
12625;SDS011;6378;42.684;23.372;2023-03-01T09:05:40;3.20;;;2.70;;
12625;SDS011;6378;42.684;23.372;2023-03-01T09:08:05;5.07;;;2.93;;
12625;SDS011;6378;42.684;23.372;2023-03-01T09:10:33;5.83;;;2.70;;
12625;SDS011;6378;42.684;23.372;2023-03-01T09:13:01;3.27;;;2.00;;
12625;SDS011;6378;42.684;23.372;2023-03-01T09:15:27;4.67;;;3.30;;
12625;SDS011;6378;42.684;23.372;2023-03-01T09:17:52;4.37;;;2.87;;
12625;SDS011;6378;42.684;23.372;2023-03-01T09:20:17;3.53;;;2.57;;
12625;SDS011;6378;42.684;23.372;2023-03-01T09:22:42;4.07;;;2.50;;
12625;SDS011;6378;42.684;23.372;2023-03-01T09:25:08;2.60;;;2.40;;
12625;SDS011;6378;42.684;23.372;2023-03-01T09:27:34;3.40;;;2.90;;
12625;SDS011;6378;42.684;23.372;2023-03-01T09:30:00;5.97;;;4.03;;
12625;SDS011;6378;42.684;23.372;2023-03-01T09:32:25;5.53;;;3.80;;
12625;SDS011;6378;42.684;23.372;2023-03-01T09:34:50;3.87;;;2.80;;
12625;SDS011;6378;42.684;23.372;2023-03-01T09:37:31;4.83;;;2.73;;
12625;SDS011;6378;42.684;23.372;2023-03-01T09:39:57;3.33;;;2.47;;
12625;SDS011;6378;42.684;23.372;2023-03-01T09:42:22;3.23;;;2.93;;
12625;SDS011;6378;42.684;23.372;2023-03-01T09:44:49;2.07;;;1.87;;
12625;SDS011;6378;42.684;23.372;2023-03-01T09:47:20;2.90;;;2.30;;
12625;SDS011;6378;42.684;23.372;2023-03-01T09:50:04;4.67;;;2.73;;
12625;SDS011;6378;42.684;23.372;2023-03-01T09:52:42;5.00;;;1.70;;
12625;SDS011;6378;42.684;23.372;2023-03-01T09:55:17;1.83;;;1.73;;
12625;SDS011;6378;42.684;23.372;2023-03-01T09:57:49;2.70;;;2.30;;
12625;SDS011;6378;42.684;23.372;2023-03-01T10:00:17;2.33;;;1.80;;
12625;SDS011;6378;42.684;23.372;2023-03-01T10:02:45;3.60;;;2.10;;
12625;SDS011;6378;42.684;23.372;2023-03-01T10:08:02;2.80;;;2.43;;
12625;SDS011;6378;42.684;23.372;2023-03-01T10:10:34;4.53;;;2.00;;
12625;SDS011;6378;42.684;23.372;2023-03-01T10:13:13;3.27;;;2.27;;
12625;SDS011;6378;42.684;23.372;2023-03-01T10:15:41;2.00;;;1.80;;
12625;SDS011;6378;42.684;23.372;2023-03-01T10:18:18;2.20;;;2.00;;
12625;SDS011;6378;42.684;23.372;2023-03-01T10:23:19;7.07;;;3.37;;
12625;SDS011;6378;42.684;23.372;2023-03-01T10:25:47;3.93;;;2.23;;
12625;SDS011;6378;42.684;23.372;2023-03-01T10:28:17;3.33;;;2.63;;
12625;SDS011;6378;42.684;23.372;2023-03-01T10:30:42;3.33;;;2.23;;
12625;SDS011;6378;42.684;23.372;2023-03-01T10:33:16;3.65;;;2.83;;
12625;SDS011;6378;42.684;23.372;2023-03-01T10:35:42;3.30;;;2.50;;
12625;SDS011;6378;42.684;23.372;2023-03-01T10:38:09;5.43;;;2.93;;
12625;SDS011;6378;42.684;23.372;2023-03-01T10:40:35;2.23;;;1.77;;
12625;SDS011;6378;42.684;23.372;2023-03-01T10:43:02;2.20;;;1.63;;
12625;SDS011;6378;42.684;23.372;2023-03-01T10:48:04;1.53;;;1.20;;
12625;SDS011;6378;42.684;23.372;2023-03-01T10:50:29;2.40;;;1.40;;
12625;SDS011;6378;42.684;23.372;2023-03-01T10:52:59;2.33;;;1.53;;
12625;SDS011;6378;42.684;23.372;2023-03-01T10:57:50;1.80;;;1.60;;
12625;SDS011;6378;42.684;23.372;2023-03-01T11:00:30;2.20;;;1.70;;
12625;SDS011;6378;42.684;23.372;2023-03-01T11:05:24;3.03;;;1.90;;
12625;SDS011;6378;42.684;23.372;2023-03-01T11:07:59;2.13;;;1.90;;
12625;SDS011;6378;42.684;23.372;2023-03-01T11:12:50;2.83;;;1.70;;
12625;SDS011;6378;42.684;23.372;2023-03-01T11:15:26;2.40;;;2.10;;
12625;SDS011;6378;42.684;23.372;2023-03-01T11:17:51;1.70;;;1.60;;
12625;SDS011;6378;42.684;23.372;2023-03-01T11:20:35;4.23;;;2.20;;
12625;SDS011;6378;42.684;23.372;2023-03-01T11:23:18;2.93;;;2.30;;
12625;SDS011;6378;42.684;23.372;2023-03-01T11:26:05;2.80;;;2.20;;
12625;SDS011;6378;42.684;23.372;2023-03-01T11:28:32;2.13;;;1.73;;
12625;SDS011;6378;42.684;23.372;2023-03-01T11:36:05;2.87;;;1.90;;
12625;SDS011;6378;42.684;23.372;2023-03-01T11:38:32;2.67;;;2.03;;
12625;SDS011;6378;42.684;23.372;2023-03-01T11:41:00;1.63;;;0.90;;
12625;SDS011;6378;42.684;23.372;2023-03-01T11:54:07;4.50;;;2.73;;
12625;SDS011;6378;42.684;23.372;2023-03-01T11:56:43;3.77;;;2.73;;
12625;SDS011;6378;42.684;23.372;2023-03-01T12:09:59;2.93;;;2.40;;
12625;SDS011;6378;42.684;23.372;2023-03-01T12:12:30;4.80;;;3.33;;
12625;SDS011;6378;42.684;23.372;2023-03-01T12:22:35;6.07;;;2.70;;
12625;SDS011;6378;42.684;23.372;2023-03-01T12:25:16;3.70;;;2.80;;
12625;SDS011;6378;42.684;23.372;2023-03-01T12:27:50;3.27;;;2.60;;
12625;SDS011;6378;42.684;23.372;2023-03-01T12:30:26;4.77;;;3.00;;
12625;SDS011;6378;42.684;23.372;2023-03-01T12:50:54;6.33;;;3.70;;
12625;SDS011;6378;42.684;23.372;2023-03-01T12:53:30;5.03;;;3.40;;
12625;SDS011;6378;42.684;23.372;2023-03-01T12:56:01;5.00;;;3.80;;
12625;SDS011;6378;42.684;23.372;2023-03-01T13:11:20;3.57;;;3.00;;
12625;SDS011;6378;42.684;23.372;2023-03-01T13:13:46;6.20;;;3.10;;
12625;SDS011;6378;42.684;23.372;2023-03-01T13:16:20;3.17;;;2.70;;
12625;SDS011;6378;42.684;23.372;2023-03-01T13:18:47;4.97;;;3.33;;
12625;SDS011;6378;42.684;23.372;2023-03-01T13:21:12;5.20;;;3.13;;
12625;SDS011;6378;42.684;23.372;2023-03-01T13:23:38;5.33;;;3.20;;
12625;SDS011;6378;42.684;23.372;2023-03-01T13:31:09;3.80;;;2.47;;
12625;SDS011;6378;42.684;23.372;2023-03-01T13:33:39;3.73;;;3.30;;
12625;SDS011;6378;42.684;23.372;2023-03-01T13:36:05;5.43;;;3.43;;
12625;SDS011;6378;42.684;23.372;2023-03-01T13:41:11;4.70;;;3.70;;
12625;SDS011;6378;42.684;23.372;2023-03-01T13:43:37;4.33;;;3.47;;
12625;SDS011;6378;42.684;23.372;2023-03-01T13:46:21;6.73;;;2.97;;
12625;SDS011;6378;42.684;23.372;2023-03-01T13:48:50;5.00;;;2.97;;
12625;SDS011;6378;42.684;23.372;2023-03-01T13:51:15;4.60;;;2.97;;
12625;SDS011;6378;42.684;23.372;2023-03-01T13:53:45;4.23;;;3.23;;
12625;SDS011;6378;42.684;23.372;2023-03-01T13:56:19;5.93;;;3.73;;
12625;SDS011;6378;42.684;23.372;2023-03-01T13:58:58;5.30;;;3.40;;
12625;SDS011;6378;42.684;23.372;2023-03-01T14:01:26;5.10;;;3.17;;
12625;SDS011;6378;42.684;23.372;2023-03-01T14:03:51;5.77;;;3.23;;
12625;SDS011;6378;42.684;23.372;2023-03-01T14:06:20;3.73;;;2.57;;
12625;SDS011;6378;42.684;23.372;2023-03-01T14:08:45;4.83;;;2.90;;
12625;SDS011;6378;42.684;23.372;2023-03-01T14:19:21;4.13;;;2.90;;
12625;SDS011;6378;42.684;23.372;2023-03-01T14:21:58;3.60;;;2.60;;
12625;SDS011;6378;42.684;23.372;2023-03-01T14:24:25;6.50;;;3.60;;
12625;SDS011;6378;42.684;23.372;2023-03-01T14:26:52;5.00;;;3.23;;
12625;SDS011;6378;42.684;23.372;2023-03-01T14:29:24;4.50;;;2.90;;
12625;SDS011;6378;42.684;23.372;2023-03-01T14:31:49;3.80;;;2.80;;
12625;SDS011;6378;42.684;23.372;2023-03-01T14:34:22;5.90;;;3.63;;
12625;SDS011;6378;42.684;23.372;2023-03-01T14:36:48;6.13;;;3.77;;
12625;SDS011;6378;42.684;23.372;2023-03-01T14:39:17;3.63;;;3.20;;
12625;SDS011;6378;42.684;23.372;2023-03-01T14:41:43;5.90;;;3.47;;
12625;SDS011;6378;42.684;23.372;2023-03-01T14:44:12;4.43;;;2.80;;
12625;SDS011;6378;42.684;23.372;2023-03-01T14:46:40;4.00;;;2.93;;
12625;SDS011;6378;42.684;23.372;2023-03-01T14:49:16;4.93;;;3.60;;
12625;SDS011;6378;42.684;23.372;2023-03-01T14:51:51;4.37;;;3.30;;
12625;SDS011;6378;42.684;23.372;2023-03-01T14:54:24;2.83;;;2.57;;
12625;SDS011;6378;42.684;23.372;2023-03-01T14:56:50;5.27;;;3.77;;
12625;SDS011;6378;42.684;23.372;2023-03-01T14:59:18;5.97;;;3.33;;
12625;SDS011;6378;42.684;23.372;2023-03-01T15:01:43;5.40;;;3.43;;
12625;SDS011;6378;42.684;23.372;2023-03-01T15:04:11;2.87;;;2.57;;
12625;SDS011;6378;42.684;23.372;2023-03-01T15:06:37;5.60;;;2.67;;
12625;SDS011;6378;42.684;23.372;2023-03-01T15:09:02;4.20;;;2.83;;
12625;SDS011;6378;42.684;23.372;2023-03-01T15:11:29;4.60;;;3.40;;
12625;SDS011;6378;42.684;23.372;2023-03-01T15:13:55;4.30;;;3.40;;
12625;SDS011;6378;42.684;23.372;2023-03-01T15:16:39;5.60;;;3.23;;
12625;SDS011;6378;42.684;23.372;2023-03-01T15:19:06;5.53;;;3.37;;
12625;SDS011;6378;42.684;23.372;2023-03-01T15:24:05;5.43;;;3.17;;
12625;SDS011;6378;42.684;23.372;2023-03-01T15:26:33;6.03;;;3.63;;
12625;SDS011;6378;42.684;23.372;2023-03-01T15:28:59;5.17;;;3.60;;
12625;SDS011;6378;42.684;23.372;2023-03-01T15:31:26;6.93;;;3.80;;
12625;SDS011;6378;42.684;23.372;2023-03-01T15:33:52;5.87;;;3.40;;
12625;SDS011;6378;42.684;23.372;2023-03-01T15:36:36;6.50;;;3.63;;
12625;SDS011;6378;42.684;23.372;2023-03-01T15:39:03;6.43;;;3.63;;
12625;SDS011;6378;42.684;23.372;2023-03-01T15:41:38;7.82;;;4.28;;
12625;SDS011;6378;42.684;23.372;2023-03-01T15:44:14;4.80;;;3.73;;
12625;SDS011;6378;42.684;23.372;2023-03-01T15:46:44;6.73;;;3.00;;
12625;SDS011;6378;42.684;23.372;2023-03-01T15:51:44;6.50;;;3.27;;
12625;SDS011;6378;42.684;23.372;2023-03-01T15:54:16;4.57;;;3.30;;
12625;SDS011;6378;42.684;23.372;2023-03-01T15:56:42;5.67;;;3.70;;
12625;SDS011;6378;42.684;23.372;2023-03-01T15:59:08;7.70;;;3.77;;
12625;SDS011;6378;42.684;23.372;2023-03-01T16:01:36;3.63;;;3.10;;
12625;SDS011;6378;42.684;23.372;2023-03-01T16:04:02;6.77;;;3.90;;
12625;SDS011;6378;42.684;23.372;2023-03-01T16:06:27;6.00;;;3.07;;
12625;SDS011;6378;42.684;23.372;2023-03-01T16:08:52;5.40;;;2.83;;
12625;SDS011;6378;42.684;23.372;2023-03-01T16:11:18;3.23;;;2.63;;
12625;SDS011;6378;42.684;23.372;2023-03-01T16:13:44;5.83;;;2.97;;
12625;SDS011;6378;42.684;23.372;2023-03-01T16:16:11;5.60;;;3.90;;
12625;SDS011;6378;42.684;23.372;2023-03-01T16:18:47;5.83;;;4.07;;
12625;SDS011;6378;42.684;23.372;2023-03-01T16:21:22;6.87;;;3.20;;
12625;SDS011;6378;42.684;23.372;2023-03-01T16:23:48;4.90;;;3.40;;
12625;SDS011;6378;42.684;23.372;2023-03-01T16:26:14;5.93;;;3.50;;
12625;SDS011;6378;42.684;23.372;2023-03-01T16:28:40;5.53;;;3.67;;
12625;SDS011;6378;42.684;23.372;2023-03-01T16:31:05;10.73;;;4.17;;
12625;SDS011;6378;42.684;23.372;2023-03-01T16:33:31;8.83;;;4.50;;
12625;SDS011;6378;42.684;23.372;2023-03-01T16:35:56;7.10;;;3.50;;
12625;SDS011;6378;42.684;23.372;2023-03-01T16:38:22;6.70;;;3.30;;
12625;SDS011;6378;42.684;23.372;2023-03-01T16:40:48;6.07;;;3.60;;
12625;SDS011;6378;42.684;23.372;2023-03-01T16:43:14;6.97;;;4.13;;
12625;SDS011;6378;42.684;23.372;2023-03-01T16:45:39;5.73;;;4.07;;
12625;SDS011;6378;42.684;23.372;2023-03-01T16:48:05;8.07;;;4.07;;
12625;SDS011;6378;42.684;23.372;2023-03-01T16:50:31;8.00;;;4.70;;
12625;SDS011;6378;42.684;23.372;2023-03-01T16:52:56;6.07;;;3.97;;
12625;SDS011;6378;42.684;23.372;2023-03-01T16:55:22;6.13;;;4.37;;
12625;SDS011;6378;42.684;23.372;2023-03-01T16:57:48;6.70;;;4.80;;
12625;SDS011;6378;42.684;23.372;2023-03-01T17:00:13;7.20;;;4.83;;
12625;SDS011;6378;42.684;23.372;2023-03-01T17:02:39;8.80;;;5.23;;
12625;SDS011;6378;42.684;23.372;2023-03-01T17:05:05;12.03;;;5.30;;
12625;SDS011;6378;42.684;23.372;2023-03-01T17:07:32;9.50;;;5.73;;
12625;SDS011;6378;42.684;23.372;2023-03-01T17:09:58;6.60;;;4.87;;
12625;SDS011;6378;42.684;23.372;2023-03-01T17:12:24;7.70;;;3.87;;
12625;SDS011;6378;42.684;23.372;2023-03-01T17:14:49;9.73;;;6.97;;
12625;SDS011;6378;42.684;23.372;2023-03-01T17:17:14;8.57;;;6.40;;
12625;SDS011;6378;42.684;23.372;2023-03-01T17:19:40;10.03;;;5.43;;
12625;SDS011;6378;42.684;23.372;2023-03-01T17:22:08;9.90;;;6.33;;
12625;SDS011;6378;42.684;23.372;2023-03-01T17:24:34;13.20;;;7.87;;
12625;SDS011;6378;42.684;23.372;2023-03-01T17:27:00;14.87;;;7.20;;
12625;SDS011;6378;42.684;23.372;2023-03-01T17:29:25;10.23;;;6.30;;
12625;SDS011;6378;42.684;23.372;2023-03-01T17:31:51;12.87;;;7.43;;
12625;SDS011;6378;42.684;23.372;2023-03-01T17:34:18;13.03;;;8.20;;
12625;SDS011;6378;42.684;23.372;2023-03-01T17:36:44;11.70;;;6.67;;
12625;SDS011;6378;42.684;23.372;2023-03-01T17:39:10;13.33;;;7.83;;
12625;SDS011;6378;42.684;23.372;2023-03-01T17:41:36;14.23;;;9.27;;
12625;SDS011;6378;42.684;23.372;2023-03-01T17:44:01;15.03;;;8.10;;
12625;SDS011;6378;42.684;23.372;2023-03-01T17:46:26;16.90;;;9.33;;
12625;SDS011;6378;42.684;23.372;2023-03-01T17:48:51;14.20;;;8.73;;
12625;SDS011;6378;42.684;23.372;2023-03-01T17:51:17;14.40;;;9.07;;
12625;SDS011;6378;42.684;23.372;2023-03-01T17:53:43;16.67;;;9.87;;
12625;SDS011;6378;42.684;23.372;2023-03-01T17:56:08;11.90;;;7.63;;
12625;SDS011;6378;42.684;23.372;2023-03-01T17:58:34;16.27;;;8.40;;
12625;SDS011;6378;42.684;23.372;2023-03-01T18:01:09;17.73;;;10.30;;
12625;SDS011;6378;42.684;23.372;2023-03-01T18:03:35;20.17;;;11.37;;
12625;SDS011;6378;42.684;23.372;2023-03-01T18:06:00;23.13;;;13.73;;
12625;SDS011;6378;42.684;23.372;2023-03-01T18:08:25;17.43;;;10.73;;
12625;SDS011;6378;42.684;23.372;2023-03-01T18:11:00;17.87;;;10.90;;
12625;SDS011;6378;42.684;23.372;2023-03-01T18:13:25;13.43;;;8.53;;
12625;SDS011;6378;42.684;23.372;2023-03-01T18:15:50;15.33;;;9.67;;
12625;SDS011;6378;42.684;23.372;2023-03-01T18:18:16;15.67;;;10.03;;
12625;SDS011;6378;42.684;23.372;2023-03-01T18:20:42;19.23;;;8.43;;
12625;SDS011;6378;42.684;23.372;2023-03-01T18:23:07;17.17;;;9.63;;
12625;SDS011;6378;42.684;23.372;2023-03-01T18:25:32;16.03;;;9.20;;
12625;SDS011;6378;42.684;23.372;2023-03-01T18:27:58;14.90;;;9.83;;
12625;SDS011;6378;42.684;23.372;2023-03-01T18:30:23;11.93;;;7.00;;
12625;SDS011;6378;42.684;23.372;2023-03-01T18:32:48;15.73;;;8.27;;
12625;SDS011;6378;42.684;23.372;2023-03-01T18:35:20;16.53;;;9.97;;
12625;SDS011;6378;42.684;23.372;2023-03-01T18:37:45;13.77;;;8.60;;
12625;SDS011;6378;42.684;23.372;2023-03-01T18:40:10;17.83;;;9.77;;
12625;SDS011;6378;42.684;23.372;2023-03-01T18:42:37;15.60;;;9.67;;
12625;SDS011;6378;42.684;23.372;2023-03-01T18:45:02;16.07;;;8.83;;
12625;SDS011;6378;42.684;23.372;2023-03-01T18:47:28;13.00;;;7.70;;
12625;SDS011;6378;42.684;23.372;2023-03-01T18:49:53;16.27;;;11.53;;
12625;SDS011;6378;42.684;23.372;2023-03-01T18:52:18;15.17;;;9.43;;
12625;SDS011;6378;42.684;23.372;2023-03-01T18:54:43;13.97;;;9.33;;
12625;SDS011;6378;42.684;23.372;2023-03-01T18:57:09;16.23;;;9.67;;
12625;SDS011;6378;42.684;23.372;2023-03-01T18:59:34;16.53;;;9.90;;
12625;SDS011;6378;42.684;23.372;2023-03-01T19:01:59;9.80;;;6.47;;
12625;SDS011;6378;42.684;23.372;2023-03-01T19:04:25;14.57;;;9.10;;
12625;SDS011;6378;42.684;23.372;2023-03-01T19:06:51;16.37;;;10.23;;
12625;SDS011;6378;42.684;23.372;2023-03-01T19:09:16;19.83;;;11.27;;
12625;SDS011;6378;42.684;23.372;2023-03-01T19:11:42;18.47;;;10.90;;
12625;SDS011;6378;42.684;23.372;2023-03-01T19:14:07;16.23;;;10.63;;
12625;SDS011;6378;42.684;23.372;2023-03-01T19:16:32;15.77;;;9.53;;
12625;SDS011;6378;42.684;23.372;2023-03-01T19:18:59;18.20;;;12.20;;
12625;SDS011;6378;42.684;23.372;2023-03-01T19:21:25;16.10;;;10.50;;
12625;SDS011;6378;42.684;23.372;2023-03-01T19:23:51;16.97;;;10.27;;
12625;SDS011;6378;42.684;23.372;2023-03-01T19:26:18;18.60;;;10.67;;
12625;SDS011;6378;42.684;23.372;2023-03-01T19:28:44;18.47;;;11.37;;
12625;SDS011;6378;42.684;23.372;2023-03-01T19:31:10;19.83;;;10.93;;
12625;SDS011;6378;42.684;23.372;2023-03-01T19:33:36;16.40;;;10.17;;
12625;SDS011;6378;42.684;23.372;2023-03-01T19:36:04;16.43;;;10.03;;
12625;SDS011;6378;42.684;23.372;2023-03-01T19:38:29;18.07;;;10.63;;
12625;SDS011;6378;42.684;23.372;2023-03-01T19:40:55;16.40;;;10.03;;
12625;SDS011;6378;42.684;23.372;2023-03-01T19:43:21;18.20;;;10.07;;
12625;SDS011;6378;42.684;23.372;2023-03-01T19:45:50;17.47;;;10.50;;
12625;SDS011;6378;42.684;23.372;2023-03-01T19:48:15;18.43;;;11.63;;
12625;SDS011;6378;42.684;23.372;2023-03-01T19:50:44;18.07;;;10.97;;
12625;SDS011;6378;42.684;23.372;2023-03-01T19:53:09;20.10;;;12.37;;
12625;SDS011;6378;42.684;23.372;2023-03-01T19:55:35;19.93;;;11.87;;
12625;SDS011;6378;42.684;23.372;2023-03-01T19:58:01;19.33;;;11.33;;
12625;SDS011;6378;42.684;23.372;2023-03-01T20:00:26;20.10;;;11.07;;
12625;SDS011;6378;42.684;23.372;2023-03-01T20:02:52;28.50;;;14.60;;
12625;SDS011;6378;42.684;23.372;2023-03-01T20:05:17;19.70;;;11.10;;
12625;SDS011;6378;42.684;23.372;2023-03-01T20:07:42;19.03;;;11.67;;
12625;SDS011;6378;42.684;23.372;2023-03-01T20:10:08;22.97;;;13.70;;
12625;SDS011;6378;42.684;23.372;2023-03-01T20:12:34;21.37;;;12.20;;
12625;SDS011;6378;42.684;23.372;2023-03-01T20:15:00;25.73;;;13.70;;
12625;SDS011;6378;42.684;23.372;2023-03-01T20:17:25;21.07;;;13.00;;
12625;SDS011;6378;42.684;23.372;2023-03-01T20:19:50;23.47;;;12.70;;
12625;SDS011;6378;42.684;23.372;2023-03-01T20:22:15;21.47;;;11.63;;
12625;SDS011;6378;42.684;23.372;2023-03-01T20:24:41;19.50;;;11.57;;
12625;SDS011;6378;42.684;23.372;2023-03-01T20:27:06;21.63;;;10.80;;
12625;SDS011;6378;42.684;23.372;2023-03-01T20:29:32;21.23;;;13.40;;
12625;SDS011;6378;42.684;23.372;2023-03-01T20:31:57;20.80;;;12.53;;
12625;SDS011;6378;42.684;23.372;2023-03-01T20:34:22;22.33;;;11.80;;
12625;SDS011;6378;42.684;23.372;2023-03-01T20:36:48;21.17;;;11.37;;
12625;SDS011;6378;42.684;23.372;2023-03-01T20:39:13;21.60;;;12.47;;
12625;SDS011;6378;42.684;23.372;2023-03-01T20:41:39;18.43;;;10.53;;
12625;SDS011;6378;42.684;23.372;2023-03-01T20:44:04;21.10;;;11.97;;
12625;SDS011;6378;42.684;23.372;2023-03-01T20:46:31;19.30;;;12.07;;
12625;SDS011;6378;42.684;23.372;2023-03-01T20:48:56;18.57;;;11.07;;
12625;SDS011;6378;42.684;23.372;2023-03-01T20:51:22;19.30;;;11.27;;
12625;SDS011;6378;42.684;23.372;2023-03-01T20:53:47;18.77;;;10.33;;
12625;SDS011;6378;42.684;23.372;2023-03-01T20:56:14;17.00;;;9.70;;
12625;SDS011;6378;42.684;23.372;2023-03-01T20:58:40;16.70;;;10.23;;
12625;SDS011;6378;42.684;23.372;2023-03-01T21:01:06;18.27;;;10.00;;
12625;SDS011;6378;42.684;23.372;2023-03-01T21:03:31;16.77;;;9.97;;
12625;SDS011;6378;42.684;23.372;2023-03-01T21:05:57;17.83;;;10.23;;
12625;SDS011;6378;42.684;23.372;2023-03-01T21:08:23;17.70;;;9.67;;
12625;SDS011;6378;42.684;23.372;2023-03-01T21:10:49;19.27;;;11.43;;
12625;SDS011;6378;42.684;23.372;2023-03-01T21:13:14;18.23;;;11.03;;
12625;SDS011;6378;42.684;23.372;2023-03-01T21:15:40;19.30;;;10.37;;
12625;SDS011;6378;42.684;23.372;2023-03-01T21:18:05;15.63;;;9.73;;
12625;SDS011;6378;42.684;23.372;2023-03-01T21:20:30;17.20;;;10.77;;
12625;SDS011;6378;42.684;23.372;2023-03-01T21:22:56;19.60;;;10.93;;
12625;SDS011;6378;42.684;23.372;2023-03-01T21:25:21;19.30;;;10.43;;
12625;SDS011;6378;42.684;23.372;2023-03-01T21:27:46;16.83;;;10.10;;
12625;SDS011;6378;42.684;23.372;2023-03-01T21:30:11;18.47;;;11.60;;
12625;SDS011;6378;42.684;23.372;2023-03-01T21:32:37;16.40;;;8.57;;
12625;SDS011;6378;42.684;23.372;2023-03-01T21:35:02;19.73;;;9.97;;
12625;SDS011;6378;42.684;23.372;2023-03-01T21:37:27;19.60;;;11.47;;
12625;SDS011;6378;42.684;23.372;2023-03-01T21:39:53;18.03;;;9.80;;
12625;SDS011;6378;42.684;23.372;2023-03-01T21:42:18;14.93;;;8.87;;
12625;SDS011;6378;42.684;23.372;2023-03-01T21:44:43;13.07;;;7.57;;
12625;SDS011;6378;42.684;23.372;2023-03-01T21:47:08;14.83;;;8.27;;
12625;SDS011;6378;42.684;23.372;2023-03-01T21:49:34;15.63;;;9.23;;